メインページ
METAR-TAF:

METAR-TAF

空港 :

Orange County Airport

モントゴメリー, ニューヨーク, アメリカ合衆国

緯度: 41-30-33N, 経度: 074-15-54W, 海抜: 111m

現時点の気象観測

当レポートは1時間2分前の15:54(UTC)に作成
南/南西の風 5kt
気温 25°C
湿度 65%
気圧 1022 hPa
視程: 16.1km
晴天

METAR: KMGJ 261554Z AUTO 20005KT 10SM CLR 25/18 A3017 RMK AO2 SLP217 T02500178

時間: 12:56 (16:56 UTC)


TAF: 見つかりません

4,000以上の空港の気象観測と天気予報(METAR報とTAF報)

利用可能な観測所は地図上に黄色い丸と赤い丸で示す。

丸の上にカーソルを重ねると観測所名を参照できる。

次にクリックすると気象観測と天気予報を参照できる。

マップの切り替え:黒色「×」印の緑ボタンをクリックして拡大、「-」印の緑ボタンをクリックして縮小、緑色の三角印をクリックして隣りの地図に切り替え


METAR-TAF: